Weather History for Ogallala, NE

Change the Weather History Date:

Sunday, November 4, 2012

  Actual Average Record
Temperature  
Mean Temperature 47 °F -  
Max Temperature 67 °F 51 °F 80 °F (2007)
Min Temperature 27 °F 25 °F 4 °F (1991)
Degree Days  
Heating Degree Days 18    
Moisture  
Dew Point 30 °F    
Average Humidity 65    
Maximum Humidity 90    
Minimum Humidity 19    
Precipitation  
Precipitation 0.00 in - - ()
Sea Level Pressure  
Sea Level Pressure 30.12 in    
Wind  
Wind Speed 8 mph (WNW)    
Max Wind Speed 23 mph    
Max Gust Speed 32 mph    
Visibility 10 miles    
Events Rain    
Averages and records for this station are not official NWS values.
T = Trace of Precipitation, MM = Missing Value Source: NWS Daily Summary

Daily Weather History Graph

Daily Weather History Graph

Search for Another Location

Airport:

Trip Planner

Search our weather history database for the weather conditions in past years. The results will help you decide how hot, cold, wet, or windy it might be!

Date:

Astronomy

Nov. 04, 2012 Rise Set
Actual Time 6:22 AM MST 4:38 PM MST
Civil Twilight 5:53 AM MST 5:07 PM MST
Nautical Twilight 5:20 AM MST 5:39 PM MST
Astronomical Twilight 4:48 AM MST 6:12 PM MST
Moon 9:18 PM MST (11/4) 11:07 AM MST (11/4)
Length of Visible Light 11h 13m
Length of Day
10h 16m
Waning Gibbous, 71% of the Moon is Illuminated
Nov 4
Waning Gibbous
Nov 6
Last Quarter
Nov 13
New
Nov 20
First Quarter
Nov 28
Full

Hourly Weather History & Observations

Time (MST) Temp. Windchill Dew Point Humidity Pressure Visibility Wind Dir Wind Speed Gust Speed Precip Events Conditions
12:15 AM 32.0 °F 26.4 °F 28.4 °F 87% 30.11 in 10.0 mi West 5.8 mph - N/A   Clear
12:35 AM 30.7 °F 24.9 °F 26.8 °F 85% 30.11 in 10.0 mi WSW 5.8 mph - N/A   Clear
12:55 AM 30.0 °F 24.1 °F 26.8 °F 88% 30.11 in 10.0 mi WSW 5.8 mph - N/A   Clear
1:15 AM 28.9 °F 21.9 °F 26.4 °F 90% 30.11 in 10.0 mi WSW 6.9 mph - N/A   Clear
1:35 AM 29.7 °F 22.8 °F 26.4 °F 88% 30.10 in 10.0 mi WSW 6.9 mph - N/A   Clear
1:55 AM 29.5 °F 24.5 °F 26.4 °F 88% 30.10 in 10.0 mi West 4.6 mph - N/A   Clear
1:15 AM 29.7 °F 22.0 °F 26.2 °F 87% 30.10 in 10.0 mi West 8.1 mph - N/A   Clear
1:35 AM 29.1 °F 22.1 °F 25.9 °F 88% 30.10 in 10.0 mi West 6.9 mph - N/A   Clear
1:55 AM 29.5 °F 22.5 °F 25.9 °F 86% 30.11 in 10.0 mi West 6.9 mph - N/A   Clear
2:15 AM 28.9 °F 22.8 °F 25.7 °F 88% 30.11 in 10.0 mi WSW 5.8 mph - N/A   Clear
2:35 AM 27.7 °F 21.3 °F 24.6 °F 88% 30.10 in 10.0 mi WSW 5.8 mph - N/A   Clear
2:55 AM 27.3 °F 20.9 °F 24.6 °F 90% 30.09 in 10.0 mi West 5.8 mph - N/A   Clear
3:15 AM 29.1 °F 22.1 °F 26.1 °F 88% 30.09 in 10.0 mi West 6.9 mph - N/A   Clear
3:35 AM 29.5 °F 22.5 °F 26.2 °F 88% 30.09 in 10.0 mi WSW 6.9 mph - N/A   Clear
3:55 AM 30.2 °F 24.3 °F 26.2 °F 85% 30.09 in 10.0 mi WSW 5.8 mph - N/A   Clear
4:15 AM 28.2 °F 21.0 °F 25.2 °F 88% 30.10 in 10.0 mi WSW 6.9 mph - N/A   Clear
4:35 AM 28.9 °F 22.8 °F 25.9 °F 88% 30.10 in 10.0 mi WSW 5.8 mph - N/A   Clear
5:15 AM 28.4 °F 23.3 °F 25.3 °F 88% 30.10 in 10.0 mi WSW 4.6 mph - N/A   Clear
5:35 AM 28.4 °F 23.3 °F 25.5 °F 89% 30.09 in 10.0 mi WSW 4.6 mph - N/A   Clear
5:55 AM 28.9 °F 22.8 °F 26.2 °F 90% 30.09 in 10.0 mi West 5.8 mph - N/A   Clear
6:15 AM 28.9 °F 21.9 °F 26.2 °F 90% 30.09 in 10.0 mi West 6.9 mph - N/A   Clear
6:35 AM 30.2 °F 23.4 °F 27.1 °F 88% 30.09 in 10.0 mi West 6.9 mph - N/A   Clear
6:55 AM 30.6 °F - 27.1 °F 87% 30.11 in 10.0 mi Calm Calm - N/A   Clear
7:15 AM 31.5 °F - 27.5 °F 85% 30.11 in 10.0 mi Calm Calm - N/A   Clear
7:35 AM 33.3 °F 27.9 °F 29.1 °F 85% 30.10 in 10.0 mi WSW 5.8 mph - N/A   Clear
7:55 AM 35.2 °F 30.3 °F 30.2 °F 82% 30.10 in 10.0 mi West 5.8 mph - N/A   Clear
8:15 AM 37.6 °F 32.3 °F 31.6 °F 79% 30.10 in 10.0 mi West 6.9 mph - N/A   Clear
8:35 AM 39.6 °F 36.3 °F 32.2 °F 75% 30.10 in 10.0 mi WSW 4.6 mph - N/A   Clear
8:55 AM 42.6 °F 39.0 °F 32.9 °F 68% 30.10 in 10.0 mi WSW 5.8 mph - N/A   Clear
9:15 AM 45.1 °F 42.8 °F 33.6 °F 64% 30.10 in 10.0 mi WSW 4.6 mph - N/A   Clear
9:35 AM 49.6 °F - 34.2 °F 55% 30.10 in 10.0 mi West 4.6 mph - N/A   Clear
9:55 AM 51.8 °F - 33.3 °F 49% 30.10 in 10.0 mi West 5.8 mph - N/A   Clear
10:15 AM 56.5 °F - 30.4 °F 37% 30.10 in 10.0 mi West 9.2 mph - N/A   Clear
10:35 AM 57.2 °F - 26.1 °F 30% 30.09 in 10.0 mi WNW 13.8 mph - N/A   Clear
10:55 AM 57.9 °F - 26.1 °F 30% 30.09 in 10.0 mi WNW 11.5 mph - N/A   Clear
11:15 AM 58.5 °F - 27.3 °F 30% 30.09 in 10.0 mi NW 8.1 mph - N/A   Clear
11:35 AM 60.3 °F - 27.5 °F 29% 30.07 in 10.0 mi NW 11.5 mph - N/A   Clear
11:55 AM 62.2 °F - 26.4 °F 26% 30.06 in 10.0 mi NNW 16.1 mph - N/A   Clear
12:15 PM 62.8 °F - 26.2 °F 25% 30.05 in 10.0 mi NNW 16.1 mph - N/A   Clear
12:35 PM 63.3 °F - 25.9 °F 24% 30.05 in 10.0 mi NW 16.1 mph - N/A   Clear
12:55 PM 65.3 °F - 26.2 °F 23% 30.06 in 10.0 mi NW 15.0 mph - N/A   Scattered Clouds
1:15 PM 66.2 °F - 25.5 °F 22% 30.05 in 10.0 mi NW 16.1 mph - N/A   Scattered Clouds
1:35 PM 67.1 °F - 22.8 °F 19% 30.05 in 10.0 mi NNW 17.3 mph 24.2 mph N/A   Clear
1:55 PM 66.7 °F - 24.4 °F 20% 30.06 in 10.0 mi North 19.6 mph 24.2 mph N/A   Clear
2:15 PM 64.9 °F - 29.3 °F 26% 30.07 in 10.0 mi NNW 17.3 mph - N/A   Clear
2:35 PM 63.9 °F - 30.9 °F 29% 30.07 in 10.0 mi North 20.7 mph 25.3 mph N/A   Scattered Clouds
2:55 PM 63.9 °F - 29.7 °F 28% 30.09 in 10.0 mi North 18.4 mph - N/A   Mostly Cloudy
3:15 PM 62.8 °F - 30.9 °F 30% 30.10 in 10.0 mi NNW 20.7 mph 26.5 mph N/A   Overcast
3:35 PM 61.7 °F - 31.3 °F 32% 30.10 in 10.0 mi NNW 18.4 mph 24.2 mph N/A   Mostly Cloudy
3:55 PM 60.6 °F - 32.9 °F 35% 30.11 in 10.0 mi NNW 19.6 mph 25.3 mph N/A   Scattered Clouds
4:15 PM 59.2 °F - 33.8 °F 38% 30.13 in 10.0 mi NNW 17.3 mph - N/A   Scattered Clouds
4:35 PM 56.1 °F - 39.4 °F 53% 30.12 in 10.0 mi NNW 23.0 mph 32.2 mph N/A Rain Light Rain
4:55 PM 54.7 °F - 39.6 °F 57% 30.14 in 10.0 mi NNW 12.7 mph - N/A   Overcast
5:15 PM 54.3 °F - 39.7 °F 58% 30.15 in 10.0 mi NNW 9.2 mph - N/A Rain Light Rain
5:35 PM 51.1 °F - 41.2 °F 69% 30.15 in 10.0 mi NNW 8.1 mph - N/A   Mostly Cloudy
5:55 PM 49.6 °F - 40.6 °F 71% 30.16 in 10.0 mi NW 6.9 mph - N/A   Overcast
6:15 PM 48.4 °F - 39.7 °F 72% 30.17 in 10.0 mi NW 8.1 mph - N/A   Scattered Clouds
6:35 PM 47.5 °F - 38.8 °F 72% 30.17 in 10.0 mi NW 6.9 mph - N/A   Scattered Clouds
6:55 PM 49.6 °F - 39.2 °F 67% 30.18 in 10.0 mi NW 8.1 mph - N/A   Scattered Clouds
7:15 PM 49.5 °F - 38.5 °F 66% 30.18 in 10.0 mi NW 8.1 mph - N/A   Clear
7:35 PM 49.5 °F - 37.4 °F 63% 30.19 in 10.0 mi North 9.2 mph - N/A   Clear
7:55 PM 45.3 °F 42.3 °F 36.1 °F 70% 30.18 in 10.0 mi NW 5.8 mph - N/A   Clear
8:15 PM 42.1 °F 37.1 °F 34.9 °F 76% 30.19 in 10.0 mi NW 8.1 mph - N/A   Clear
8:35 PM 39.4 °F 35.2 °F 33.6 °F 80% 30.19 in 10.0 mi WNW 5.8 mph - N/A   Clear
8:55 PM 41.2 °F 36.6 °F 33.8 °F 75% 30.18 in 10.0 mi WNW 6.9 mph - N/A   Clear
9:15 PM 43.5 °F 37.5 °F 35.4 °F 73% 30.18 in 10.0 mi WNW 11.5 mph - N/A   Clear
9:35 PM 45.0 °F 39.3 °F 36.1 °F 71% 30.20 in 10.0 mi NW 11.5 mph - N/A   Scattered Clouds
9:55 PM 44.1 °F 38.6 °F 35.6 °F 72% 30.20 in 10.0 mi NW 10.4 mph - N/A   Clear
10:15 PM 43.7 °F 38.1 °F 35.8 °F 74% 30.20 in 10.0 mi WNW 10.4 mph - N/A   Clear
10:35 PM 42.4 °F 37.0 °F 35.1 °F 75% 30.20 in 10.0 mi WNW 9.2 mph - N/A   Clear
10:55 PM 41.0 °F 38.0 °F 34.7 °F 78% 30.20 in 10.0 mi NW 4.6 mph - N/A   Clear